sensor_id;sensor_type;location;lat;lon;timestamp;pressure;altitude;pressure_sealevel;temperature;humidity
56402;BME280;42299;35.160;26.100;2024-02-14T00:03:15;100547.38;;;11.71;100.00
56402;BME280;42299;35.160;26.100;2024-02-14T00:08:38;100545.31;;;11.36;100.00
56402;BME280;42299;35.160;26.100;2024-02-14T00:14:02;100546.84;;;11.11;100.00
56402;BME280;42299;35.160;26.100;2024-02-14T00:19:24;100539.16;;;11.37;100.00
56402;BME280;42299;35.160;26.100;2024-02-14T00:24:47;100536.38;;;11.21;100.00
56402;BME280;42299;35.160;26.100;2024-02-14T00:30:13;100543.09;;;10.90;100.00
56402;BME280;42299;35.160;26.100;2024-02-14T00:35:35;100543.84;;;10.75;100.00
56402;BME280;42299;35.160;26.100;2024-02-14T00:40:58;100540.47;;;10.90;100.00
56402;BME280;42299;35.160;26.100;2024-02-14T00:46:22;100533.44;;;10.92;100.00
56402;BME280;42299;35.160;26.100;2024-02-14T00:51:45;100526.50;;;11.03;100.00
56402;BME280;42299;35.160;26.100;2024-02-14T00:57:07;100522.28;;;11.23;100.00
56402;BME280;42299;35.160;26.100;2024-02-14T01:02:31;100513.44;;;11.15;100.00
56402;BME280;42299;35.160;26.100;2024-02-14T01:07:54;100506.28;;;11.02;100.00
56402;BME280;42299;35.160;26.100;2024-02-14T01:13:16;100505.38;;;11.01;100.00
56402;BME280;42299;35.160;26.100;2024-02-14T01:18:41;100493.13;;;11.11;100.00
56402;BME280;42299;35.160;26.100;2024-02-14T01:24:04;100504.75;;;11.30;100.00
56402;BME280;42299;35.160;26.100;2024-02-14T01:29:29;100504.88;;;11.45;100.00
56402;BME280;42299;35.160;26.100;2024-02-14T01:34:53;100486.50;;;11.60;100.00
56402;BME280;42299;35.160;26.100;2024-02-14T01:40:16;100499.63;;;11.51;100.00
56402;BME280;42299;35.160;26.100;2024-02-14T01:45:38;100495.22;;;11.48;100.00
56402;BME280;42299;35.160;26.100;2024-02-14T01:51:03;100488.44;;;11.84;100.00
56402;BME280;42299;35.160;26.100;2024-02-14T01:56:28;100485.94;;;12.14;100.00
56402;BME280;42299;35.160;26.100;2024-02-14T02:01:51;100484.13;;;12.03;100.00
56402;BME280;42299;35.160;26.100;2024-02-14T02:07:15;100494.72;;;12.01;100.00
56402;BME280;42299;35.160;26.100;2024-02-14T02:12:40;100491.09;;;11.90;100.00
56402;BME280;42299;35.160;26.100;2024-02-14T02:18:03;100493.75;;;11.87;100.00
56402;BME280;42299;35.160;26.100;2024-02-14T02:23:28;100494.63;;;11.86;100.00
56402;BME280;42299;35.160;26.100;2024-02-14T02:28:50;100495.53;;;11.95;100.00
56402;BME280;42299;35.160;26.100;2024-02-14T02:34:13;100499.06;;;11.96;100.00
56402;BME280;42299;35.160;26.100;2024-02-14T02:39:39;100492.94;;;12.00;100.00
56402;BME280;42299;35.160;26.100;2024-02-14T02:45:02;100498.19;;;11.91;100.00
56402;BME280;42299;35.160;26.100;2024-02-14T02:50:26;100495.63;;;12.06;100.00
56402;BME280;42299;35.160;26.100;2024-02-14T02:55:50;100491.28;;;12.22;100.00
56402;BME280;42299;35.160;26.100;2024-02-14T03:01:15;100483.34;;;12.25;100.00
56402;BME280;42299;35.160;26.100;2024-02-14T03:06:37;100485.09;;;12.20;100.00
56402;BME280;42299;35.160;26.100;2024-02-14T03:12:02;100490.44;;;12.32;100.00
56402;BME280;42299;35.160;26.100;2024-02-14T03:17:25;100492.25;;;12.42;100.00
56402;BME280;42299;35.160;26.100;2024-02-14T03:22:49;100499.31;;;12.49;100.00
56402;BME280;42299;35.160;26.100;2024-02-14T03:28:14;100493.09;;;12.35;100.00
56402;BME280;42299;35.160;26.100;2024-02-14T03:33:36;100496.63;;;12.32;100.00
56402;BME280;42299;35.160;26.100;2024-02-14T03:38:59;100490.38;;;12.14;100.00
56402;BME280;42299;35.160;26.100;2024-02-14T03:44:26;100496.47;;;11.99;100.00
56402;BME280;42299;35.160;26.100;2024-02-14T03:49:48;100507.78;;;11.74;100.00
56402;BME280;42299;35.160;26.100;2024-02-14T03:55:13;100506.09;;;11.88;100.00
56402;BME280;42299;35.160;26.100;2024-02-14T04:00:39;100512.31;;;11.96;100.00
56402;BME280;42299;35.160;26.100;2024-02-14T04:06:01;100510.63;;;12.12;100.00
56402;BME280;42299;35.160;26.100;2024-02-14T04:11:24;100516.84;;;12.17;100.00
56402;BME280;42299;35.160;26.100;2024-02-14T04:16:48;100520.38;;;12.22;100.00
56402;BME280;42299;35.160;26.100;2024-02-14T04:22:10;100533.63;;;12.23;100.00
56402;BME280;42299;35.160;26.100;2024-02-14T04:27:33;100532.81;;;12.36;100.00
56402;BME280;42299;35.160;26.100;2024-02-14T04:32:57;100523.06;;;12.28;100.00
56402;BME280;42299;35.160;26.100;2024-02-14T04:38:19;100519.59;;;12.44;100.00
56402;BME280;42299;35.160;26.100;2024-02-14T04:43:42;100525.03;;;12.73;100.00
56402;BME280;42299;35.160;26.100;2024-02-14T04:49:06;100533.00;;;12.97;100.00
56402;BME280;42299;35.160;26.100;2024-02-14T04:54:29;100517.13;;;13.06;100.00
56402;BME280;42299;35.160;26.100;2024-02-14T04:59:51;100510.09;;;13.16;100.00
56402;BME280;42299;35.160;26.100;2024-02-14T05:05:15;100523.38;;;13.19;100.00
56402;BME280;42299;35.160;26.100;2024-02-14T05:10:38;100523.38;;;13.24;100.00
56402;BME280;42299;35.160;26.100;2024-02-14T05:16:02;100533.91;;;13.05;100.00
56402;BME280;42299;35.160;26.100;2024-02-14T05:21:26;100537.41;;;12.89;100.00
56402;BME280;42299;35.160;26.100;2024-02-14T05:26:49;100535.66;;;12.91;100.00
56402;BME280;42299;35.160;26.100;2024-02-14T05:32:13;100541.81;;;12.86;100.00
56402;BME280;42299;35.160;26.100;2024-02-14T05:37:37;100530.38;;;13.03;100.00
56402;BME280;42299;35.160;26.100;2024-02-14T05:42:59;100543.66;;;13.14;100.00
56402;BME280;42299;35.160;26.100;2024-02-14T05:48:22;100544.59;;;13.25;100.00
56402;BME280;42299;35.160;26.100;2024-02-14T05:53:46;100544.50;;;13.01;100.00
56402;BME280;42299;35.160;26.100;2024-02-14T05:59:09;100553.31;;;12.86;100.00
56402;BME280;42299;35.160;26.100;2024-02-14T06:04:32;100559.56;;;13.14;100.00
56402;BME280;42299;35.160;26.100;2024-02-14T06:09:56;100553.44;;;13.45;100.00
56402;BME280;42299;35.160;26.100;2024-02-14T06:15:18;100553.44;;;13.64;100.00
56402;BME280;42299;35.160;26.100;2024-02-14T06:20:41;100551.63;;;13.94;100.00
56402;BME280;42299;35.160;26.100;2024-02-14T06:26:05;100556.06;;;14.03;100.00
56402;BME280;42299;35.160;26.100;2024-02-14T06:31:28;100552.47;;;14.21;100.00
56402;BME280;42299;35.160;26.100;2024-02-14T06:36:51;100551.34;;;14.86;100.00
56402;BME280;42299;35.160;26.100;2024-02-14T06:42:15;100550.72;;;15.78;100.00
56402;BME280;42299;35.160;26.100;2024-02-14T06:47:38;100542.97;;;16.40;100.00
56402;BME280;42299;35.160;26.100;2024-02-14T06:53:00;100552.38;;;15.88;100.00
56402;BME280;42299;35.160;26.100;2024-02-14T06:58:25;100569.31;;;15.81;100.00
56402;BME280;42299;35.160;26.100;2024-02-14T07:03:47;100564.91;;;15.79;100.00
56402;BME280;42299;35.160;26.100;2024-02-14T07:09:10;100575.09;;;16.26;100.00
56402;BME280;42299;35.160;26.100;2024-02-14T07:14:35;100569.34;;;16.67;100.00
56402;BME280;42299;35.160;26.100;2024-02-14T07:19:57;100581.16;;;16.40;100.00
56402;BME280;42299;35.160;26.100;2024-02-14T07:25:20;100587.69;;;16.09;100.00
56402;BME280;42299;35.160;26.100;2024-02-14T07:30:44;100597.50;;;16.02;100.00
56402;BME280;42299;35.160;26.100;2024-02-14T07:36:09;100591.81;;;16.39;100.00
56402;BME280;42299;35.160;26.100;2024-02-14T07:41:31;100580.72;;;16.80;100.00
56402;BME280;42299;35.160;26.100;2024-02-14T07:46:55;100572.09;;;16.55;100.00
56402;BME280;42299;35.160;26.100;2024-02-14T08:05:32;100579.22;;;15.66;100.00
56402;BME280;42299;35.160;26.100;2024-02-14T08:10:54;100582.97;;;15.34;100.00
56402;BME280;42299;35.160;26.100;2024-02-14T08:16:17;100581.16;;;15.41;100.00
56402;BME280;42299;35.160;26.100;2024-02-14T08:21:41;100581.00;;;15.64;100.00
56402;BME280;42299;35.160;26.100;2024-02-14T08:27:04;100576.19;;;17.46;100.00
56402;BME280;42299;35.160;26.100;2024-02-14T08:32:27;100564.63;;;20.68;100.00
56402;BME280;42299;35.160;26.100;2024-02-14T08:37:52;100571.72;;;19.32;100.00
56402;BME280;42299;35.160;26.100;2024-02-14T08:43:14;100557.56;;;20.66;100.00
56402;BME280;42299;35.160;26.100;2024-02-14T08:48:37;100553.53;;;20.50;100.00
56402;BME280;42299;35.160;26.100;2024-02-14T08:54:08;100550.63;;;20.88;100.00
56402;BME280;42299;35.160;26.100;2024-02-14T08:59:31;100552.88;;;19.37;100.00
56402;BME280;42299;35.160;26.100;2024-02-14T09:04:54;100544.44;;;19.89;100.00
56402;BME280;42299;35.160;26.100;2024-02-14T09:10:18;100538.09;;;19.21;100.00
56402;BME280;42299;35.160;26.100;2024-02-14T09:15:40;100541.78;;;19.55;100.00
56402;BME280;42299;35.160;26.100;2024-02-14T09:21:03;100554.94;;;24.52;100.00
56402;BME280;42299;35.160;26.100;2024-02-14T09:26:27;100554.72;;;22.36;100.00
56402;BME280;42299;35.160;26.100;2024-02-14T09:31:50;100576.50;;;19.20;100.00
56402;BME280;42299;35.160;26.100;2024-02-14T09:37:13;100588.16;;;17.79;100.00
56402;BME280;42299;35.160;26.100;2024-02-14T09:42:38;100587.59;;;17.59;100.00
56402;BME280;42299;35.160;26.100;2024-02-14T09:48:02;100591.38;;;17.44;100.00
56402;BME280;42299;35.160;26.100;2024-02-14T09:53:28;100590.22;;;18.14;100.00
56402;BME280;42299;35.160;26.100;2024-02-14T09:58:53;100599.03;;;17.67;100.00
56402;BME280;42299;35.160;26.100;2024-02-14T10:04:17;100596.78;;;17.96;100.00
56402;BME280;42299;35.160;26.100;2024-02-14T10:09:41;100577.00;;;18.52;100.00
56402;BME280;42299;35.160;26.100;2024-02-14T10:15:07;100570.53;;;19.07;100.00
56402;BME280;42299;35.160;26.100;2024-02-14T10:20:29;100563.53;;;21.05;100.00
56402;BME280;42299;35.160;26.100;2024-02-14T10:25:54;100541.50;;;24.51;100.00
56402;BME280;42299;35.160;26.100;2024-02-14T10:31:19;100527.09;;;26.83;86.18
56402;BME280;42299;35.160;26.100;2024-02-14T10:36:42;100522.75;;;28.05;72.66
56402;BME280;42299;35.160;26.100;2024-02-14T10:42:05;100517.28;;;25.62;91.79
56402;BME280;42299;35.160;26.100;2024-02-14T10:47:32;100522.91;;;24.03;100.00
56402;BME280;42299;35.160;26.100;2024-02-14T10:52:57;100522.06;;;22.22;100.00
56402;BME280;42299;35.160;26.100;2024-02-14T10:58:24;100514.75;;;22.01;100.00
56402;BME280;42299;35.160;26.100;2024-02-14T11:03:48;100523.13;;;22.89;100.00
56402;BME280;42299;35.160;26.100;2024-02-14T11:09:12;100523.53;;;24.09;88.42
56402;BME280;42299;35.160;26.100;2024-02-14T11:14:36;100523.69;;;23.21;90.34
56402;BME280;42299;35.160;26.100;2024-02-14T11:20:17;100528.94;;;22.54;95.44
56402;BME280;42299;35.160;26.100;2024-02-14T11:25:39;100529.06;;;22.51;93.54
56402;BME280;42299;35.160;26.100;2024-02-14T11:31:02;100523.66;;;22.76;90.07
56402;BME280;42299;35.160;26.100;2024-02-14T11:36:26;100518.69;;;22.88;84.31
56402;BME280;42299;35.160;26.100;2024-02-14T11:41:49;100513.34;;;21.36;95.87
56402;BME280;42299;35.160;26.100;2024-02-14T11:47:12;100520.13;;;20.61;99.39
56402;BME280;42299;35.160;26.100;2024-02-14T11:52:36;100518.28;;;20.63;100.00
56402;BME280;42299;35.160;26.100;2024-02-14T11:57:59;100514.63;;;20.35;100.00
56402;BME280;42299;35.160;26.100;2024-02-14T12:03:22;100508.28;;;19.73;100.00
56402;BME280;42299;35.160;26.100;2024-02-14T12:08:48;100521.69;;;19.36;100.00
56402;BME280;42299;35.160;26.100;2024-02-14T12:14:10;100514.59;;;19.70;100.00
56402;BME280;42299;35.160;26.100;2024-02-14T12:19:34;100514.53;;;20.06;100.00
56402;BME280;42299;35.160;26.100;2024-02-14T12:25:00;100499.38;;;20.05;100.00
56402;BME280;42299;35.160;26.100;2024-02-14T12:30:24;100509.50;;;19.95;100.00
56402;BME280;42299;35.160;26.100;2024-02-14T12:35:57;100514.03;;;19.92;96.42
56402;BME280;42299;35.160;26.100;2024-02-14T12:41:21;100513.94;;;19.62;91.45
56402;BME280;42299;35.160;26.100;2024-02-14T12:46:44;100519.88;;;18.99;93.34
56402;BME280;42299;35.160;26.100;2024-02-14T12:52:06;100534.25;;;18.95;97.05
56402;BME280;42299;35.160;26.100;2024-02-14T12:57:30;100527.41;;;18.81;94.07
56402;BME280;42299;35.160;26.100;2024-02-14T13:02:53;100521.22;;;18.79;92.20
56402;BME280;42299;35.160;26.100;2024-02-14T13:08:16;100515.53;;;18.94;92.24
56402;BME280;42299;35.160;26.100;2024-02-14T13:13:40;100514.72;;;18.49;96.03
56402;BME280;42299;35.160;26.100;2024-02-14T13:19:04;100512.53;;;18.24;99.61
56402;BME280;42299;35.160;26.100;2024-02-14T13:24:26;100523.63;;;18.49;100.00
56402;BME280;42299;35.160;26.100;2024-02-14T13:29:50;100517.75;;;19.14;96.58
56402;BME280;42299;35.160;26.100;2024-02-14T13:35:13;100525.16;;;19.39;92.53
56402;BME280;42299;35.160;26.100;2024-02-14T13:40:35;100513.03;;;19.62;90.90
56402;BME280;42299;35.160;26.100;2024-02-14T13:45:59;100511.34;;;19.58;90.89
56402;BME280;42299;35.160;26.100;2024-02-14T13:51:22;100519.19;;;19.28;95.47
56402;BME280;42299;35.160;26.100;2024-02-14T13:56:45;100520.22;;;18.40;98.01
56402;BME280;42299;35.160;26.100;2024-02-14T14:02:10;100518.91;;;17.70;100.00
56402;BME280;42299;35.160;26.100;2024-02-14T14:07:33;100524.00;;;17.28;100.00
56402;BME280;42299;35.160;26.100;2024-02-14T14:12:57;100536.53;;;17.25;100.00
56402;BME280;42299;35.160;26.100;2024-02-14T14:18:21;100533.78;;;17.29;100.00
56402;BME280;42299;35.160;26.100;2024-02-14T14:23:43;100538.22;;;17.29;100.00
56402;BME280;42299;35.160;26.100;2024-02-14T14:29:09;100539.69;;;17.48;100.00
56402;BME280;42299;35.160;26.100;2024-02-14T14:34:33;100538.22;;;17.29;100.00
56402;BME280;42299;35.160;26.100;2024-02-14T14:39:56;100531.06;;;17.32;100.00
56402;BME280;42299;35.160;26.100;2024-02-14T14:45:19;100529.88;;;17.51;100.00
56402;BME280;42299;35.160;26.100;2024-02-14T14:50:43;100545.44;;;17.22;100.00
56402;BME280;42299;35.160;26.100;2024-02-14T14:56:06;100552.19;;;16.86;100.00
56402;BME280;42299;35.160;26.100;2024-02-14T15:01:28;100559.84;;;16.39;100.00
56402;BME280;42299;35.160;26.100;2024-02-14T15:06:55;100564.56;;;16.14;100.00
56402;BME280;42299;35.160;26.100;2024-02-14T15:12:17;100578.03;;;15.99;100.00
56402;BME280;42299;35.160;26.100;2024-02-14T15:17:40;100585.13;;;15.98;100.00
56402;BME280;42299;35.160;26.100;2024-02-14T15:23:04;100587.13;;;15.75;100.00
56402;BME280;42299;35.160;26.100;2024-02-14T15:28:28;100593.47;;;15.59;100.00
56402;BME280;42299;35.160;26.100;2024-02-14T15:33:51;100599.69;;;15.51;100.00
56402;BME280;42299;35.160;26.100;2024-02-14T15:39:15;100599.72;;;15.47;100.00
56402;BME280;42299;35.160;26.100;2024-02-14T15:44:38;100606.78;;;15.51;100.00
56402;BME280;42299;35.160;26.100;2024-02-14T15:50:00;100600.56;;;15.58;100.00
56402;BME280;42299;35.160;26.100;2024-02-14T15:55:24;100607.75;;;15.36;100.00
56402;BME280;42299;35.160;26.100;2024-02-14T16:00:48;100618.44;;;15.32;100.00
56402;BME280;42299;35.160;26.100;2024-02-14T16:06:11;100621.16;;;15.23;100.00
56402;BME280;42299;35.160;26.100;2024-02-14T16:11:35;100622.00;;;15.29;100.00
56402;BME280;42299;35.160;26.100;2024-02-14T16:16:57;100625.41;;;15.49;100.00
56402;BME280;42299;35.160;26.100;2024-02-14T16:22:20;100634.28;;;15.51;100.00
56402;BME280;42299;35.160;26.100;2024-02-14T16:27:46;100651.16;;;15.49;100.00
56402;BME280;42299;35.160;26.100;2024-02-14T16:33:08;100655.72;;;15.29;100.00
56402;BME280;42299;35.160;26.100;2024-02-14T16:38:34;100660.13;;;15.27;100.00
56402;BME280;42299;35.160;26.100;2024-02-14T16:43:58;100652.13;;;15.33;100.00
56402;BME280;42299;35.160;26.100;2024-02-14T16:49:20;100663.72;;;15.20;100.00
56402;BME280;42299;35.160;26.100;2024-02-14T16:54:43;100657.53;;;15.11;100.00
56402;BME280;42299;35.160;26.100;2024-02-14T17:00:08;100661.81;;;15.44;100.00
56402;BME280;42299;35.160;26.100;2024-02-14T17:05:31;100654.78;;;15.31;100.00
56402;BME280;42299;35.160;26.100;2024-02-14T17:10:54;100665.53;;;15.16;100.00
56402;BME280;42299;35.160;26.100;2024-02-14T17:16:18;100672.56;;;15.28;100.00
56402;BME280;42299;35.160;26.100;2024-02-14T17:21:40;100677.84;;;15.32;100.00
56402;BME280;42299;35.160;26.100;2024-02-14T17:27:03;100673.44;;;15.27;100.00
56402;BME280;42299;35.160;26.100;2024-02-14T17:32:27;100668.94;;;15.38;100.00
56402;BME280;42299;35.160;26.100;2024-02-14T17:37:49;100665.31;;;15.57;100.00
56402;BME280;42299;35.160;26.100;2024-02-14T17:43:12;100665.31;;;15.51;100.00
56402;BME280;42299;35.160;26.100;2024-02-14T17:48:36;100672.44;;;15.47;100.00
56402;BME280;42299;35.160;26.100;2024-02-14T17:53:59;100672.47;;;15.41;100.00
56402;BME280;42299;35.160;26.100;2024-02-14T17:59:23;100676.94;;;15.33;100.00
56402;BME280;42299;35.160;26.100;2024-02-14T18:04:47;100672.50;;;15.34;100.00
56402;BME280;42299;35.160;26.100;2024-02-14T18:10:11;100680.47;;;15.40;100.00
56402;BME280;42299;35.160;26.100;2024-02-14T18:15:34;100681.34;;;15.37;100.00
56402;BME280;42299;35.160;26.100;2024-02-14T18:20:58;100682.31;;;15.26;100.00
56402;BME280;42299;35.160;26.100;2024-02-14T18:26:21;100683.25;;;15.15;100.00
56402;BME280;42299;35.160;26.100;2024-02-14T18:31:44;100683.28;;;15.06;100.00
56402;BME280;42299;35.160;26.100;2024-02-14T18:37:08;100684.13;;;15.13;100.00
56402;BME280;42299;35.160;26.100;2024-02-14T18:42:31;100683.19;;;15.25;100.00
56402;BME280;42299;35.160;26.100;2024-02-14T18:47:54;100699.16;;;15.29;100.00
56402;BME280;42299;35.160;26.100;2024-02-14T18:53:18;100703.63;;;15.10;100.00
56402;BME280;42299;35.160;26.100;2024-02-14T18:58:41;100712.56;;;14.96;100.00
56402;BME280;42299;35.160;26.100;2024-02-14T19:04:03;100711.72;;;14.79;100.00
56402;BME280;42299;35.160;26.100;2024-02-14T19:09:28;100710.88;;;14.67;100.00
56402;BME280;42299;35.160;26.100;2024-02-14T19:14:52;100709.09;;;14.66;100.00
56402;BME280;42299;35.160;26.100;2024-02-14T19:20:17;100711.75;;;14.53;100.00
56402;BME280;42299;35.160;26.100;2024-02-14T19:25:41;100722.41;;;14.48;100.00
56402;BME280;42299;35.160;26.100;2024-02-14T19:31:04;100717.09;;;14.38;100.00
56402;BME280;42299;35.160;26.100;2024-02-14T19:36:26;100720.59;;;14.24;100.00
56402;BME280;42299;35.160;26.100;2024-02-14T19:41:54;100718.84;;;14.45;100.00
56402;BME280;42299;35.160;26.100;2024-02-14T19:47:17;100717.09;;;14.56;100.00
56402;BME280;42299;35.160;26.100;2024-02-14T19:52:39;100714.41;;;14.59;100.00
56402;BME280;42299;35.160;26.100;2024-02-14T19:58:04;100719.72;;;14.62;100.00
56402;BME280;42299;35.160;26.100;2024-02-14T20:03:26;100702.03;;;14.55;100.00
56402;BME280;42299;35.160;26.100;2024-02-14T20:08:49;100700.19;;;14.80;100.00
56402;BME280;42299;35.160;26.100;2024-02-14T20:14:13;100697.44;;;15.11;100.00
56402;BME280;42299;35.160;26.100;2024-02-14T20:19:36;100694.69;;;15.34;100.00
56402;BME280;42299;35.160;26.100;2024-02-14T20:25:01;100688.47;;;15.31;100.00
56402;BME280;42299;35.160;26.100;2024-02-14T20:30:26;100689.41;;;15.18;100.00
56402;BME280;42299;35.160;26.100;2024-02-14T20:35:49;100692.19;;;14.93;100.00
56402;BME280;42299;35.160;26.100;2024-02-14T20:41:13;100688.66;;;14.96;100.00
56402;BME280;42299;35.160;26.100;2024-02-14T20:46:37;100685.91;;;15.11;100.00
56402;BME280;42299;35.160;26.100;2024-02-14T20:52:00;100676.06;;;15.31;100.00
56402;BME280;42299;35.160;26.100;2024-02-14T20:57:23;100685.94;;;15.09;100.00
56402;BME280;42299;35.160;26.100;2024-02-14T21:02:47;100692.25;;;14.77;100.00
56402;BME280;42299;35.160;26.100;2024-02-14T21:08:10;100682.53;;;14.63;100.00
56402;BME280;42299;35.160;26.100;2024-02-14T21:13:32;100691.34;;;14.79;100.00
56402;BME280;42299;35.160;26.100;2024-02-14T21:18:57;100682.38;;;15.13;100.00
56402;BME280;42299;35.160;26.100;2024-02-14T21:24:19;100671.63;;;15.32;100.00
56402;BME280;42299;35.160;26.100;2024-02-14T21:29:42;100668.09;;;15.30;100.00
56402;BME280;42299;35.160;26.100;2024-02-14T21:35:07;100676.13;;;15.18;100.00
56402;BME280;42299;35.160;26.100;2024-02-14T21:40:32;100666.44;;;15.04;100.00
56402;BME280;42299;35.160;26.100;2024-02-14T21:45:54;100670.03;;;14.96;100.00
56402;BME280;42299;35.160;26.100;2024-02-14T21:51:20;100677.97;;;15.09;100.00
56402;BME280;42299;35.160;26.100;2024-02-14T21:56:42;100675.31;;;15.08;100.00
56402;BME280;42299;35.160;26.100;2024-02-14T22:02:05;100665.50;;;15.18;100.00
56402;BME280;42299;35.160;26.100;2024-02-14T22:07:29;100673.47;;;15.19;100.00
56402;BME280;42299;35.160;26.100;2024-02-14T22:12:51;100677.97;;;15.06;100.00
56402;BME280;42299;35.160;26.100;2024-02-14T22:18:17;100671.75;;;15.06;100.00
56402;BME280;42299;35.160;26.100;2024-02-14T22:23:42;100676.16;;;15.11;100.00
56402;BME280;42299;35.160;26.100;2024-02-14T22:29:04;100672.66;;;14.99;100.00
56402;BME280;42299;35.160;26.100;2024-02-14T22:34:27;100675.38;;;14.88;100.00
56402;BME280;42299;35.160;26.100;2024-02-14T22:39:52;100675.38;;;14.87;100.00
56402;BME280;42299;35.160;26.100;2024-02-14T22:45:14;100672.72;;;14.90;100.00
56402;BME280;42299;35.160;26.100;2024-02-14T22:50:37;100670.91;;;14.98;100.00
56402;BME280;42299;35.160;26.100;2024-02-14T22:56:01;100668.22;;;15.04;100.00
56402;BME280;42299;35.160;26.100;2024-02-14T23:01:24;100665.41;;;15.30;100.00
56402;BME280;42299;35.160;26.100;2024-02-14T23:06:46;100649.47;;;15.33;100.00
56402;BME280;42299;35.160;26.100;2024-02-14T23:12:10;100654.78;;;15.30;100.00
56402;BME280;42299;35.160;26.100;2024-02-14T23:17:33;100650.41;;;15.21;100.00
56402;BME280;42299;35.160;26.100;2024-02-14T23:22:56;100665.50;;;15.18;100.00
56402;BME280;42299;35.160;26.100;2024-02-14T23:28:20;100666.50;;;14.92;100.00
56402;BME280;42299;35.160;26.100;2024-02-14T23:33:45;100658.56;;;14.80;100.00
56402;BME280;42299;35.160;26.100;2024-02-14T23:39:07;100671.03;;;14.51;100.00
56402;BME280;42299;35.160;26.100;2024-02-14T23:44:32;100665.75;;;14.49;100.00
56402;BME280;42299;35.160;26.100;2024-02-14T23:49:55;100663.06;;;14.45;100.00
56402;BME280;42299;35.160;26.100;2024-02-14T23:55:18;100675.47;;;14.35;100.00
